createdAt,value
2018-07-06T00:01:26.314Z,98650.78
2018-07-06T00:04:06.226Z,98642.34
2018-07-06T00:06:45.931Z,98647.77
2018-07-06T00:09:25.687Z,98647.13
2018-07-06T00:12:05.570Z,98643.95
2018-07-06T00:14:45.451Z,98644.99
2018-07-06T00:17:25.130Z,98645.15
2018-07-06T00:20:05.098Z,98648.34
2018-07-06T00:22:44.838Z,98651.20
2018-07-06T00:25:24.631Z,98645.63
2018-07-06T00:28:04.431Z,98648.70
2018-07-06T00:30:44.271Z,98646.19
2018-07-06T00:33:24.062Z,98644.31
2018-07-06T00:36:03.882Z,98641.81
2018-07-06T00:38:43.631Z,98637.91
2018-07-06T00:41:24.098Z,98643.48
2018-07-06T00:44:03.726Z,98642.97
2018-07-06T00:46:43.557Z,98646.20
2018-07-06T00:49:23.306Z,98647.88
2018-07-06T00:52:03.275Z,98653.28
2018-07-06T00:54:43.173Z,98649.90
2018-07-06T00:57:22.968Z,98644.20
2018-07-06T01:00:02.672Z,98651.94
2018-07-06T01:02:42.383Z,98646.35
2018-07-06T01:05:22.240Z,98644.16
2018-07-06T01:08:01.952Z,98643.82
2018-07-06T01:10:41.751Z,98646.88
2018-07-06T01:13:21.462Z,98646.05
2018-07-06T01:16:01.214Z,98645.37
2018-07-06T01:18:41.270Z,98647.23
2018-07-06T01:21:21.041Z,98644.84
2018-07-06T01:24:00.629Z,98639.42
2018-07-06T01:26:40.294Z,98641.61
2018-07-06T01:29:20.108Z,98640.78
2018-07-06T01:32:00.027Z,98639.10
2018-07-06T01:34:39.695Z,98644.17
2018-07-06T01:37:19.470Z,98644.52
2018-07-06T01:39:59.271Z,98647.70
2018-07-06T01:42:39.046Z,98647.19
2018-07-06T01:45:18.993Z,98645.16
2018-07-06T01:47:58.826Z,98647.86
2018-07-06T01:50:38.594Z,98644.84
2018-07-06T01:53:18.418Z,98647.88
2018-07-06T02:02:54.824Z,98644.53
2018-07-06T02:05:34.663Z,98644.18
2018-07-06T02:08:14.199Z,98653.49
2018-07-06T02:10:53.899Z,98650.27
2018-07-06T02:13:33.658Z,98647.56
2018-07-06T02:16:13.175Z,98645.85
2018-07-06T02:18:52.999Z,98647.56
2018-07-06T02:21:32.865Z,98648.91
2018-07-06T02:24:12.595Z,98649.59
2018-07-06T02:26:52.428Z,98646.91
2018-07-06T02:29:32.197Z,98652.33
2018-07-06T02:32:11.862Z,98645.88
2018-07-06T02:34:51.665Z,98652.13
2018-07-06T02:37:31.463Z,98644.52
2018-07-06T02:40:11.256Z,98645.88
2018-07-06T02:42:50.938Z,98647.03
2018-07-06T02:45:30.748Z,98646.19
2018-07-06T02:48:10.427Z,98646.51
2018-07-06T02:50:50.173Z,98646.19
2018-07-06T02:53:29.967Z,98651.94
2018-07-06T02:56:09.677Z,98645.52
2018-07-06T02:58:49.512Z,98647.34
2018-07-06T03:01:29.435Z,98655.00
2018-07-06T03:04:09.140Z,98655.36
2018-07-06T03:06:48.959Z,98649.11
2018-07-06T03:09:28.891Z,98654.69
2018-07-06T03:12:08.683Z,98651.27
2018-07-06T03:14:48.485Z,98658.23
2018-07-06T03:17:28.365Z,98658.91
2018-07-06T03:20:08.204Z,98660.45
2018-07-06T03:22:47.828Z,98656.88
2018-07-06T03:25:27.636Z,98660.77
2018-07-06T03:28:07.533Z,98663.16
2018-07-06T03:30:47.270Z,98659.10
2018-07-06T03:33:27.247Z,98661.27
2018-07-06T03:36:06.913Z,98659.91
2018-07-06T03:38:50.638Z,98663.14
2018-07-06T03:41:30.434Z,98667.20
2018-07-06T03:44:10.083Z,98661.78
2018-07-06T03:46:49.815Z,98667.43
2018-07-06T03:49:29.676Z,98667.43
2018-07-06T03:52:09.378Z,98674.39
2018-07-06T03:54:49.269Z,98670.33
2018-07-06T03:57:28.863Z,98675.42
2018-07-06T04:00:08.551Z,98674.74
2018-07-06T04:02:48.310Z,98673.23
2018-07-06T04:05:28.257Z,98678.15
2018-07-06T04:08:08.067Z,98685.27
2018-07-06T04:10:47.795Z,98681.90
2018-07-06T04:13:27.498Z,98684.95
2018-07-06T04:16:07.577Z,98686.32
2018-07-06T04:18:47.410Z,98681.06
2018-07-06T04:21:27.147Z,98683.77
2018-07-06T04:24:06.823Z,98678.89
2018-07-06T04:26:46.782Z,98683.63
2018-07-06T04:29:26.289Z,98689.86
2018-07-06T04:32:06.198Z,98689.36
2018-07-06T04:34:45.990Z,98694.45
2018-07-06T04:37:25.778Z,98695.78
2018-07-06T04:40:05.635Z,98694.08
2018-07-06T04:42:45.328Z,98699.68
2018-07-06T04:45:25.120Z,98697.97
2018-07-06T04:48:04.962Z,98702.20
2018-07-06T04:50:44.744Z,98700.52
2018-07-06T04:53:24.540Z,98704.08
2018-07-06T04:56:04.371Z,98701.36
2018-07-06T04:58:44.222Z,98715.05
2018-07-06T05:01:23.821Z,98706.09
2018-07-06T05:04:03.494Z,98713.37
2018-07-06T05:06:43.342Z,98713.03
2018-07-06T05:09:23.196Z,98714.06
2018-07-06T05:12:02.828Z,98717.95
2018-07-06T05:14:42.490Z,98719.80
2018-07-06T05:17:22.304Z,98722.52
2018-07-06T05:20:04.793Z,98721.50
2018-07-06T05:22:44.650Z,98720.80
2018-07-06T05:25:24.446Z,98732.30
2018-07-06T05:28:04.260Z,98726.40
2018-07-06T05:30:43.826Z,98729.27
2018-07-06T05:33:23.683Z,98734.33
2018-07-06T05:36:03.638Z,98737.56
2018-07-06T05:38:43.343Z,98737.38
2018-07-06T05:41:23.064Z,98737.70
2018-07-06T05:44:02.843Z,98737.20
2018-07-06T05:46:42.647Z,98743.11
2018-07-06T05:49:22.396Z,98754.46
2018-07-06T05:52:02.182Z,98750.56
2018-07-06T05:54:42.120Z,98751.59
2018-07-06T05:57:22.189Z,98753.94
2018-07-06T06:00:01.944Z,98753.28
2018-07-06T06:02:41.832Z,98758.86
2018-07-06T06:05:21.427Z,98761.73
2018-07-06T06:07:48.694Z,98765.12
2018-07-06T06:10:17.475Z,98762.71
2018-07-06T06:12:45.991Z,98767.46
2018-07-06T06:15:14.489Z,98772.03
2018-07-06T06:17:43.019Z,98770.52
2018-07-06T06:20:15.178Z,98770.83
2018-07-06T06:22:43.696Z,98769.83
2018-07-06T06:25:12.602Z,98774.42
2018-07-06T06:27:41.102Z,98776.27
2018-07-06T06:30:09.921Z,98781.52
2018-07-06T06:32:39.163Z,98784.20
2018-07-06T06:35:07.699Z,98783.37
2018-07-06T06:37:36.219Z,98783.70
2018-07-06T06:40:04.776Z,98783.66
2018-07-06T06:42:33.703Z,98789.08
2018-07-06T06:45:02.234Z,98787.24
2018-07-06T06:47:30.864Z,98795.50
2018-07-06T06:49:59.458Z,98800.59
2018-07-06T06:52:27.982Z,98797.54
2018-07-06T06:54:56.661Z,98799.19
2018-07-06T06:57:25.398Z,98801.95
2018-07-06T06:59:53.986Z,98801.22
2018-07-06T07:02:22.579Z,98807.12
2018-07-06T07:04:51.223Z,98807.95
2018-07-06T07:07:19.843Z,98817.89
2018-07-06T07:09:48.583Z,98814.43
2018-07-06T07:12:17.118Z,98817.63
2018-07-06T07:14:45.703Z,98818.43
2018-07-06T07:17:14.609Z,98819.59
2018-07-06T07:19:43.154Z,98818.59
2018-07-06T07:22:11.770Z,98818.73
2018-07-06T07:24:40.294Z,98825.45
2018-07-06T07:27:08.807Z,98820.86
2018-07-06T07:29:37.402Z,98824.26
2018-07-06T07:32:05.946Z,98821.67
2018-07-06T07:34:34.395Z,98820.80
2018-07-06T07:37:02.894Z,98825.39
2018-07-06T07:39:31.582Z,98831.88
2018-07-06T07:42:00.175Z,98832.92
2018-07-06T07:44:28.662Z,98831.03
2018-07-06T07:46:57.179Z,98831.05
2018-07-06T07:49:25.703Z,98828.91
2018-07-06T07:52:08.987Z,98831.80
2018-07-06T07:54:48.406Z,98834.30
2018-07-06T07:57:16.990Z,98833.77
2018-07-06T07:59:45.602Z,98833.94
2018-07-06T08:02:14.047Z,98834.00
2018-07-06T08:04:42.747Z,98841.05
2018-07-06T08:07:11.514Z,98843.41
2018-07-06T08:09:40.312Z,98836.39
2018-07-06T08:12:08.774Z,98847.25
2018-07-06T08:14:37.823Z,98844.56
2018-07-06T08:17:06.436Z,98844.77
2018-07-06T08:19:35.305Z,98844.69
2018-07-06T08:22:03.841Z,98857.06
2018-07-06T08:24:32.327Z,98856.47
2018-07-06T08:27:00.886Z,98861.31
2018-07-06T08:29:29.390Z,98854.52
2018-07-06T08:31:57.890Z,98861.12
2018-07-06T08:34:37.562Z,98864.14
2018-07-06T08:37:29.951Z,98866.34
2018-07-06T08:39:59.164Z,98869.60
2018-07-06T08:42:29.120Z,98872.76
2018-07-06T08:44:58.656Z,98872.69
2018-07-06T08:47:27.263Z,98872.94
2018-07-06T08:49:56.797Z,98877.04
2018-07-06T08:52:25.310Z,98871.63
2018-07-06T08:54:54.126Z,98877.04
2018-07-06T08:57:23.682Z,98877.55
2018-07-06T08:59:52.903Z,98874.09
2018-07-06T09:02:21.858Z,98878.74
2018-07-06T09:04:51.131Z,98880.41
2018-07-06T09:07:19.613Z,98882.30
2018-07-06T09:09:48.198Z,98882.93
2018-07-06T09:12:16.687Z,98884.92
2018-07-06T09:14:45.119Z,98889.14
2018-07-06T09:17:14.997Z,98883.85
2018-07-06T09:19:44.035Z,98886.88
2018-07-06T09:22:13.087Z,98882.78
2018-07-06T09:24:42.054Z,98883.30
2018-07-06T09:27:10.783Z,98889.85
2018-07-06T09:29:39.329Z,98890.50
2018-07-06T09:32:08.450Z,98893.55
2018-07-06T09:34:37.210Z,98891.35
2018-07-06T09:37:05.837Z,98898.73
2018-07-06T09:39:34.506Z,98895.86
2018-07-06T09:42:03.509Z,98894.61
2018-07-06T09:44:32.068Z,98902.41
2018-07-06T09:47:00.678Z,98900.41
2018-07-06T09:49:29.175Z,98905.16
2018-07-06T09:51:58.319Z,98901.38
2018-07-06T09:54:26.895Z,98902.03
2018-07-06T09:56:55.439Z,98902.66
2018-07-06T09:59:24.079Z,98907.80
2018-07-06T10:01:52.991Z,98912.98
2018-07-06T10:04:21.574Z,98912.79
2018-07-06T10:06:50.166Z,98917.53
2018-07-06T10:09:18.634Z,98925.08
2018-07-06T10:11:47.186Z,98925.17
2018-07-06T10:14:15.659Z,98922.75
2018-07-06T10:16:44.295Z,98927.53
2018-07-06T10:19:12.838Z,98929.38
2018-07-06T10:21:41.374Z,98926.61
2018-07-06T10:24:09.898Z,98927.98
2018-07-06T10:26:38.497Z,98929.91
2018-07-06T10:29:20.128Z,98926.95
2018-07-06T10:32:26.426Z,98932.27
2018-07-06T10:34:55.174Z,98928.88
2018-07-06T10:37:24.035Z,98931.43
2018-07-06T10:39:56.793Z,98935.16
2018-07-06T10:42:25.211Z,98935.26
2018-07-06T10:44:53.739Z,98928.70
2018-07-06T10:47:22.259Z,98934.22
2018-07-06T10:49:50.696Z,98937.11
2018-07-06T10:52:19.345Z,98929.89
2018-07-06T10:54:48.487Z,98929.43
2018-07-06T10:57:17.116Z,98934.78
2018-07-06T10:59:45.590Z,98938.34
2018-07-06T11:02:14.022Z,98935.83
2018-07-06T11:04:42.611Z,98938.05
2018-07-06T11:07:11.357Z,98942.93
2018-07-06T11:09:39.978Z,98946.05
2018-07-06T11:12:08.456Z,98949.95
2018-07-06T11:14:36.966Z,98942.17
2018-07-06T11:17:05.589Z,98936.95
2018-07-06T11:19:34.262Z,98940.98
2018-07-06T11:22:02.812Z,98940.73
2018-07-06T11:24:31.524Z,98939.68
2018-07-06T11:27:00.191Z,98942.19
2018-07-06T11:29:28.712Z,98945.17
2018-07-06T11:31:57.226Z,98942.03
2018-07-06T11:34:25.867Z,98948.09
2018-07-06T11:36:54.345Z,98947.71
2018-07-06T11:39:22.807Z,98950.05
2018-07-06T11:41:51.482Z,98948.47
2018-07-06T11:44:20.011Z,98946.14
2018-07-06T11:46:48.430Z,98944.02
2018-07-06T11:49:16.942Z,98942.94
2018-07-06T11:51:45.599Z,98942.56
2018-07-06T11:54:14.236Z,98945.11
2018-07-06T11:56:42.683Z,98946.80
2018-07-06T11:59:11.205Z,98948.42
2018-07-06T12:01:39.635Z,98942.27
2018-07-06T12:04:08.288Z,98946.56
2018-07-06T12:06:36.724Z,98944.38
2018-07-06T12:09:05.955Z,98937.20
2018-07-06T12:11:34.582Z,98937.11
2018-07-06T12:14:03.327Z,98934.24
2018-07-06T12:16:32.063Z,98929.33
2018-07-06T12:19:00.568Z,98937.11
2018-07-06T12:21:29.128Z,98934.60
2018-07-06T12:23:57.635Z,98942.53
2018-07-06T12:26:26.110Z,98941.95
2018-07-06T12:28:54.589Z,98939.36
2018-07-06T12:31:23.138Z,98941.63
2018-07-06T12:33:51.564Z,98930.62
2018-07-06T12:36:20.090Z,98935.73
2018-07-06T12:38:48.830Z,98932.34
2018-07-06T12:41:17.456Z,98933.24
2018-07-06T12:43:46.115Z,98928.88
2018-07-06T12:46:14.978Z,98937.12
2018-07-06T12:48:43.579Z,98939.39
2018-07-06T12:51:12.136Z,98934.56
2018-07-06T12:53:40.726Z,98937.66
2018-07-06T12:56:09.251Z,98943.98
2018-07-06T12:58:37.778Z,98941.74
2018-07-06T13:01:06.491Z,98940.36
2018-07-06T13:03:35.026Z,98944.31
2018-07-06T13:06:03.640Z,98941.91
2018-07-06T13:08:32.289Z,98943.94
2018-07-06T13:11:00.855Z,98940.09
2018-07-06T13:13:29.287Z,98943.83
2018-07-06T13:15:57.904Z,98944.22
2018-07-06T13:18:26.673Z,98938.26
2018-07-06T13:20:55.142Z,98939.13
2018-07-06T13:23:23.591Z,98937.11
2018-07-06T13:25:52.195Z,98942.45
2018-07-06T13:28:20.901Z,98942.25
2018-07-06T13:30:49.454Z,98938.58
2018-07-06T13:33:18.051Z,98940.05
2018-07-06T13:35:46.576Z,98937.02
2018-07-06T13:38:15.147Z,98934.87
2018-07-06T13:40:45.010Z,98937.56
2018-07-06T13:43:13.841Z,98938.59
2018-07-06T13:45:42.398Z,98949.80
2018-07-06T13:48:10.985Z,98946.39
2018-07-06T13:50:39.499Z,98949.89
2018-07-06T13:53:08.176Z,98945.56
2018-07-06T13:55:36.743Z,98946.33
2018-07-06T13:58:05.341Z,98949.68
2018-07-06T14:00:34.040Z,98954.11
2018-07-06T14:03:02.578Z,98952.95
2018-07-06T14:05:31.102Z,98957.02
2018-07-06T14:07:59.678Z,98954.23
2018-07-06T14:10:28.158Z,98961.31
2018-07-06T14:12:56.620Z,98955.05
2018-07-06T14:15:25.134Z,98953.92
2018-07-06T14:17:53.776Z,98957.45
2018-07-06T14:20:22.273Z,98955.89
2018-07-06T14:22:50.874Z,98958.63
2018-07-06T14:25:19.505Z,98952.38
2018-07-06T14:27:48.181Z,98940.70
2018-07-06T14:30:16.696Z,98947.13
2018-07-06T14:32:45.311Z,98948.47
2018-07-06T14:35:13.944Z,98955.69
2018-07-06T14:37:42.716Z,98955.45
2018-07-06T14:40:11.290Z,98951.16
2018-07-06T14:42:39.927Z,98950.98
2018-07-06T14:45:08.592Z,98951.34
2018-07-06T14:47:37.130Z,98963.52
2018-07-06T14:50:05.719Z,98958.94
2018-07-06T14:52:34.279Z,98961.16
2018-07-06T14:55:03.094Z,98953.18
2018-07-06T14:57:31.623Z,98947.31
2018-07-06T15:00:00.660Z,98941.08
2018-07-06T15:02:29.195Z,98936.07
2018-07-06T15:04:58.096Z,98930.12
2018-07-06T15:07:26.656Z,98929.83
2018-07-06T15:09:55.224Z,98928.04
2018-07-06T15:12:23.811Z,98926.93
2018-07-06T15:14:52.491Z,98916.97
2018-07-06T15:17:20.931Z,98909.30
2018-07-06T15:19:49.454Z,98907.64
2018-07-06T15:22:18.014Z,98910.61
2018-07-06T15:24:46.670Z,98910.97
2018-07-06T15:27:15.424Z,98899.11
2018-07-06T15:29:43.970Z,98906.27
2018-07-06T15:32:12.542Z,98910.52
2018-07-06T15:34:41.231Z,98913.66
2018-07-06T15:37:09.852Z,98912.63
2018-07-06T15:39:42.158Z,98913.22
2018-07-06T15:42:10.811Z,98909.67
2018-07-06T15:44:39.589Z,98908.38
2018-07-06T15:47:08.117Z,98907.79
2018-07-06T15:49:36.760Z,98898.27
2018-07-06T15:52:05.191Z,98893.48
2018-07-06T15:54:33.711Z,98892.71
2018-07-06T15:57:02.255Z,98900.22
2018-07-06T15:59:30.806Z,98897.20
2018-07-06T16:01:59.708Z,98891.36
2018-07-06T16:04:28.213Z,98896.81
2018-07-06T16:06:56.688Z,98889.39
2018-07-06T16:09:25.322Z,98900.11
2018-07-06T16:11:54.787Z,98907.41
2018-07-06T16:14:23.295Z,98904.45
2018-07-06T16:16:51.746Z,98900.69
2018-07-06T16:19:20.598Z,98900.91
2018-07-06T16:21:49.174Z,98899.41
2018-07-06T16:24:17.715Z,98898.28
2018-07-06T16:26:46.179Z,98904.88
2018-07-06T16:29:14.667Z,98900.18
2018-07-06T16:31:43.184Z,98899.37
2018-07-06T16:34:11.723Z,98906.73
2018-07-06T16:36:40.220Z,98911.35
2018-07-06T16:39:08.826Z,98911.35
2018-07-06T16:41:37.282Z,98907.04
2018-07-06T16:44:06.049Z,98913.36
2018-07-06T16:46:34.531Z,98908.19
2018-07-06T16:49:03.018Z,98913.53
2018-07-06T16:51:32.249Z,98916.13
2018-07-06T16:54:00.828Z,98913.26
2018-07-06T16:56:29.671Z,98916.86
2018-07-06T16:58:58.360Z,98913.91
2018-07-06T17:01:26.920Z,98926.77
2018-07-06T17:03:55.783Z,98933.52
2018-07-06T17:06:24.235Z,98928.80
2018-07-06T17:08:52.760Z,98931.92
2018-07-06T17:11:21.364Z,98932.39
2018-07-06T17:13:50.284Z,98941.20
2018-07-06T17:16:19.171Z,98936.65
2018-07-06T17:18:47.639Z,98938.05
2018-07-06T17:21:16.226Z,98938.95
2018-07-06T17:23:44.744Z,98942.86
2018-07-06T17:26:17.599Z,98934.36
2018-07-06T17:28:46.111Z,98935.94
2018-07-06T17:31:14.792Z,98938.34
2018-07-06T17:33:43.400Z,98940.66
2018-07-06T17:36:11.959Z,98940.16
2018-07-06T17:38:40.548Z,98939.95
2018-07-06T17:41:09.132Z,98946.27
2018-07-06T17:43:37.759Z,98940.09
2018-07-06T17:46:06.275Z,98945.74
2018-07-06T17:48:34.820Z,98943.35
2018-07-06T17:51:03.549Z,98943.34
2018-07-06T17:53:32.419Z,98943.20
2018-07-06T17:56:01.021Z,98941.21
2018-07-06T17:58:29.503Z,98931.66
2018-07-06T18:00:58.579Z,98934.73
2018-07-06T18:03:27.125Z,98945.25
2018-07-06T18:05:55.623Z,98940.57
2018-07-06T18:08:24.069Z,98949.26
2018-07-06T18:10:52.665Z,98949.16
2018-07-06T18:13:21.277Z,98945.46
2018-07-06T18:15:49.831Z,98948.88
2018-07-06T18:18:18.509Z,98937.86
2018-07-06T18:20:47.138Z,98941.73
2018-07-06T18:23:15.912Z,98934.70
2018-07-06T18:25:44.459Z,98935.52
2018-07-06T18:28:13.329Z,98936.95
2018-07-06T18:30:41.784Z,98935.84
2018-07-06T18:33:10.321Z,98935.36
2018-07-06T18:35:38.844Z,98935.95
2018-07-06T18:38:07.459Z,98929.56
2018-07-06T18:40:35.943Z,98934.55
2018-07-06T18:43:04.496Z,98934.63
2018-07-06T18:45:33.236Z,98931.89
2018-07-06T18:48:01.792Z,98933.98
2018-07-06T18:50:30.317Z,98931.20
2018-07-06T18:52:58.963Z,98935.55
2018-07-06T18:55:27.548Z,98934.63
2018-07-06T18:57:55.995Z,98935.60
2018-07-06T19:00:24.596Z,98937.06
2018-07-06T19:02:53.098Z,98944.40
2018-07-06T19:05:21.570Z,98942.19
2018-07-06T19:07:50.046Z,98941.02
2018-07-06T19:10:18.575Z,98944.55
2018-07-06T19:12:47.363Z,98940.16
2018-07-06T19:15:15.911Z,98945.73
2018-07-06T19:17:44.357Z,98950.22
2018-07-06T19:20:12.879Z,98959.02
2018-07-06T19:22:41.422Z,98965.04
2018-07-06T19:25:09.983Z,98964.63
2018-07-06T19:27:38.976Z,98967.98
2018-07-06T19:30:07.538Z,98967.22
2018-07-06T19:32:36.167Z,98976.11
2018-07-06T19:35:04.718Z,98980.89
2018-07-06T19:37:33.263Z,98980.23
2018-07-06T19:40:01.687Z,98983.85
2018-07-06T19:42:30.235Z,98989.57
2018-07-06T19:44:58.718Z,98994.09
2018-07-06T19:47:27.196Z,99000.69
2018-07-06T19:49:55.678Z,99011.33
2018-07-06T19:52:24.158Z,99005.61
2018-07-06T19:54:52.894Z,99007.41
2018-07-06T19:57:21.382Z,99019.67
2018-07-06T19:59:49.963Z,99017.33
2018-07-06T20:02:18.506Z,99022.77
2018-07-06T20:04:47.107Z,99026.84
2018-07-06T20:07:15.766Z,99028.70
2018-07-06T20:09:44.267Z,99030.45
2018-07-06T20:12:12.939Z,99025.92
2018-07-06T20:14:41.687Z,99034.59
2018-07-06T20:17:10.318Z,99041.19
2018-07-06T20:19:38.807Z,99048.19
2018-07-06T20:22:07.335Z,99049.78
2018-07-06T20:24:35.866Z,99050.52
2018-07-06T20:27:04.523Z,99055.68
2018-07-06T20:29:33.302Z,99057.05
2018-07-06T20:32:01.844Z,99054.51
2018-07-06T20:34:30.762Z,99059.81
2018-07-06T20:36:59.387Z,99057.15
2018-07-06T20:39:27.870Z,99062.42
2018-07-06T20:41:56.347Z,99063.66
2018-07-06T20:44:24.861Z,99069.08
2018-07-06T20:46:53.430Z,99069.46
2018-07-06T20:49:22.044Z,99071.14
2018-07-06T20:51:50.787Z,99073.18
2018-07-06T20:54:19.351Z,99079.83
2018-07-06T20:56:47.838Z,99096.27
2018-07-06T20:59:16.477Z,99111.29
2018-07-06T21:01:45.027Z,99112.81
2018-07-06T21:04:13.676Z,99120.27
2018-07-06T21:06:42.150Z,99117.91
2018-07-06T21:09:10.679Z,99114.00
2018-07-06T21:11:39.561Z,99115.88
2018-07-06T21:14:08.042Z,99114.55
2018-07-06T21:16:36.503Z,99110.47
2018-07-06T21:19:05.027Z,99114.89
2018-07-06T21:21:33.630Z,99114.22
2018-07-06T21:24:02.298Z,99113.02
2018-07-06T21:26:30.996Z,99109.14
2018-07-06T21:28:59.521Z,99114.70
2018-07-06T21:31:28.051Z,99117.23
2018-07-06T21:33:56.592Z,99129.71
2018-07-06T21:36:25.206Z,99130.19
2018-07-06T21:38:53.767Z,99130.03
2018-07-06T21:41:22.334Z,99129.34
2018-07-06T21:43:51.079Z,99128.31
2018-07-06T21:46:19.943Z,99128.88
2018-07-06T21:48:48.398Z,99127.52
2018-07-06T21:51:16.894Z,99126.52
2018-07-06T21:53:45.387Z,99123.80
2018-07-06T21:56:13.907Z,99126.84
2018-07-06T21:58:42.408Z,99121.56
2018-07-06T22:01:10.941Z,99118.00
2018-07-06T22:03:39.545Z,99124.44
2018-07-06T22:06:08.102Z,99127.31
2018-07-06T22:08:36.758Z,99128.34
2018-07-06T22:11:05.416Z,99117.97
2018-07-06T22:13:33.992Z,99123.40
2018-07-06T22:16:02.555Z,99124.92
2018-07-06T22:18:31.087Z,99119.53
2018-07-06T22:20:59.804Z,99121.76
2018-07-06T22:23:28.751Z,99119.53
2018-07-06T22:25:57.266Z,99121.05
2018-07-06T22:28:25.759Z,99122.95
2018-07-06T22:30:54.239Z,99123.99
2018-07-06T22:33:22.803Z,99129.06
2018-07-06T22:35:51.215Z,99125.03
2018-07-06T22:38:19.837Z,99127.06
2018-07-06T22:40:48.490Z,99128.77
2018-07-06T22:43:16.979Z,99125.07
2018-07-06T22:45:45.456Z,99121.53
2018-07-06T22:48:13.879Z,99125.78
2018-07-06T22:50:42.391Z,99127.83
2018-07-06T22:53:10.931Z,99127.83
2018-07-06T22:55:39.489Z,99117.31
2018-07-06T22:58:08.123Z,99118.50
2018-07-06T23:00:36.740Z,99119.84
2018-07-06T23:03:06.199Z,99128.99
2018-07-06T23:05:34.885Z,99127.66
2018-07-06T23:08:03.352Z,99119.83
2018-07-06T23:10:31.967Z,99116.96
2018-07-06T23:13:00.531Z,99113.73
2018-07-06T23:15:29.096Z,99115.61
2018-07-06T23:17:57.663Z,99110.86
2018-07-06T23:20:26.107Z,99106.45
2018-07-06T23:23:00.998Z,99107.14
2018-07-06T23:25:29.814Z,99114.93
2018-07-06T23:27:58.399Z,99113.05
2018-07-06T23:30:27.251Z,99110.01
2018-07-06T23:32:56.764Z,99111.88
2018-07-06T23:35:25.433Z,99111.52
2018-07-06T23:37:54.140Z,99118.30
2018-07-06T23:40:22.802Z,99116.11
2018-07-06T23:42:51.299Z,99120.83
2018-07-06T23:45:20.240Z,99124.38
2018-07-06T23:47:48.788Z,99131.33
2018-07-06T23:50:17.762Z,99125.73
2018-07-06T23:52:46.847Z,99131.00
2018-07-06T23:55:15.840Z,99131.99
2018-07-06T23:57:44.734Z,99130.66
